X  SluitMETAR luchtvaart weer gegevens      EHRD Rotterdam

Temperatuur

5°C Temperatuur

2°C Dauwpunt

81% Vochtigheid



Wind

32 KM/U

20 MPH

 9 M/S

17 KTS



150°
Zuid Zuid
Oost
Huidig weer

Light Drizzle Light Drizzle
Luchtdruk 981.92 (hPa) - 29 (in)
Zicht 6.2 (mi) - 10 (km)
Vliegveld
Vliegveld code EHRD

Locatie Rotterdam 16 (km)

Metar:
EHRD 122055Z AUTO 15017KT 120V200 9999 -DZ OVC017 05/02 Q0982 NOSIG

Tijd: 12-12-2019 21:55